Time,TemperatureF,DewpointF,PressureIn,WindDirection,WindDirectionDegrees,WindSpeedMPH,WindSpeedGustMPH,Humidity,HourlyPrecipIn,Conditions,Clouds,dailyrainin,SolarRadiationWatts/m^2,SoftwareType,DateUTC
2013-06-26 00:00:00,67.0,65.0,-100.00,SSW,202,0.0,-999.0,93,-99.99,,,-99.99,0.000000,,2013-06-26 04:00:00,
2013-06-26 00:43:00,67.0,65.0,-100.00,SSW,202,0.0,-999.0,93,-99.99,,,-99.99,0.000000,,2013-06-26 04:43:00,
2013-06-26 00:53:00,67.0,65.0,-100.00,SSW,202,0.0,-999.0,93,-99.99,,,-99.99,0.000000,,2013-06-26 04:53:00,
2013-06-26 01:00:00,66.0,65.0,-100.00,ESE,112,0.0,-999.0,94,-99.99,,,-99.99,0.000000,,2013-06-26 05:00:00,
2013-06-26 01:43:00,66.0,65.0,-100.00,ESE,112,0.0,-999.0,94,-99.99,,,-99.99,0.000000,,2013-06-26 05:43:00,
2013-06-26 01:52:00,66.0,65.0,-100.00,ESE,112,0.0,-999.0,94,-99.99,,,-99.99,0.000000,,2013-06-26 05:52:00,
2013-06-26 02:00:00,65.0,64.0,-100.00,East,90,0.0,-999.0,95,-99.99,,,-99.99,0.000000,,2013-06-26 06:00:00,
2013-06-26 02:44:00,65.0,64.0,-100.00,East,90,0.0,-999.0,95,-99.99,,,-99.99,0.000000,,2013-06-26 06:44:00,
2013-06-26 02:53:00,65.0,64.0,-100.00,East,90,0.0,-999.0,95,-99.99,,,-99.99,0.000000,,2013-06-26 06:53:00,
2013-06-26 03:00:00,64.0,63.0,-100.00,NW,315,0.0,-999.0,95,-99.99,,,-99.99,0.000000,,2013-06-26 07:00:00,
2013-06-26 03:43:00,64.0,63.0,-100.00,NW,315,0.0,-999.0,95,-99.99,,,-99.99,0.000000,,2013-06-26 07:43:00,
2013-06-26 03:53:00,64.0,63.0,-100.00,NW,315,0.0,-999.0,95,-99.99,,,-99.99,0.000000,,2013-06-26 07:53:00,
2013-06-26 04:00:00,65.0,64.0,-100.00,WSW,247,0.0,-999.0,96,-99.99,,,-99.99,0.000000,,2013-06-26 08:00:00,
2013-06-26 04:43:00,65.0,64.0,-100.00,WSW,247,0.0,-999.0,96,-99.99,,,-99.99,0.000000,,2013-06-26 08:43:00,
2013-06-26 04:53:00,65.0,64.0,-100.00,WSW,247,0.0,-999.0,96,-99.99,,,-99.99,0.000000,,2013-06-26 08:53:00,
2013-06-26 05:00:00,64.0,63.0,-100.00,South,180,0.0,-999.0,96,-99.99,,,-99.99,0.000000,,2013-06-26 09:00:00,
2013-06-26 05:43:00,64.0,63.0,-100.00,South,180,0.0,-999.0,96,-99.99,,,-99.99,0.000000,,2013-06-26 09:43:00,
2013-06-26 05:53:00,64.0,63.0,-100.00,South,180,0.0,-999.0,96,-99.99,,,-99.99,0.000000,,2013-06-26 09:53:00,
2013-06-26 06:00:00,63.0,63.0,-100.00,SE,135,1.0,-999.0,97,-99.99,,,-99.99,0.000000,,2013-06-26 10:00:00,
2013-06-26 06:43:00,63.0,63.0,-100.00,SE,135,1.0,-999.0,97,-99.99,,,-99.99,0.000000,,2013-06-26 10:43:00,
2013-06-26 06:53:00,63.0,63.0,-100.00,SE,135,1.0,-999.0,97,-99.99,,,-99.99,0.000000,,2013-06-26 10:53:00,
2013-06-26 07:00:00,63.0,62.0,-100.00,ESE,112,0.0,-999.0,97,-99.99,,,-99.99,22.040001,,2013-06-26 11:00:00,
2013-06-26 07:44:00,63.0,62.0,-100.00,ESE,112,0.0,-999.0,97,-99.99,,,-99.99,22.040001,,2013-06-26 11:44:00,
2013-06-26 07:52:00,63.0,62.0,-100.00,ESE,112,0.0,-999.0,97,-99.99,,,-99.99,22.040001,,2013-06-26 11:52:00,
2013-06-26 08:00:00,65.0,64.0,-100.00,ENE,67,0.0,-999.0,97,-99.99,,,-99.99,114.839996,,2013-06-26 12:00:00,
2013-06-26 08:43:00,65.0,64.0,-100.00,ENE,67,0.0,-999.0,97,-99.99,,,-99.99,114.839996,,2013-06-26 12:43:00,
2013-06-26 08:52:00,65.0,64.0,-100.00,ENE,67,0.0,-999.0,97,-99.99,,,-99.99,114.839996,,2013-06-26 12:52:00,
2013-06-26 09:00:00,68.0,66.0,-100.00,SE,135,2.0,-999.0,95,-99.99,,,-99.99,279.559998,,2013-06-26 13:00:00,
2013-06-26 09:53:00,68.0,66.0,-100.00,SE,135,2.0,-999.0,95,-99.99,,,-99.99,279.559998,,2013-06-26 13:53:00,
2013-06-26 10:00:00,71.0,66.0,-100.00,South,180,8.0,-999.0,83,-99.99,,,-99.99,389.760010,,2013-06-26 14:00:00,
2013-06-26 10:42:00,71.0,66.0,-100.00,South,180,8.0,-999.0,83,-99.99,,,-99.99,389.760010,,2013-06-26 14:42:00,
2013-06-26 10:53:00,71.0,66.0,-100.00,South,180,8.0,-999.0,83,-99.99,,,-99.99,389.760010,,2013-06-26 14:53:00,
2013-06-26 11:00:00,73.0,67.0,-100.00,South,180,8.0,-999.0,82,-99.99,,,-99.99,287.679993,,2013-06-26 15:00:00,
2013-06-26 11:44:00,73.0,67.0,-100.00,South,180,8.0,-999.0,82,-99.99,,,-99.99,287.679993,,2013-06-26 15:44:00,
2013-06-26 11:53:00,73.0,67.0,-100.00,South,180,8.0,-999.0,82,-99.99,,,-99.99,287.679993,,2013-06-26 15:53:00,
2013-06-26 12:00:00,74.0,66.0,-100.00,South,180,7.0,-999.0,77,-99.99,,,-99.99,296.959991,,2013-06-26 16:00:00,
2013-06-26 12:43:00,74.0,66.0,-100.00,South,180,7.0,-999.0,77,-99.99,,,-99.99,296.959991,,2013-06-26 16:43:00,
2013-06-26 12:52:00,74.0,66.0,-100.00,South,180,7.0,-999.0,77,-99.99,,,-99.99,296.959991,,2013-06-26 16:52:00,
2013-06-26 13:00:00,76.0,67.0,-100.00,SE,135,4.0,-999.0,74,-99.99,,,-99.99,612.479980,,2013-06-26 17:00:00,
2013-06-26 13:43:00,76.0,67.0,-100.00,SE,135,4.0,-999.0,74,-99.99,,,-99.99,612.479980,,2013-06-26 17:43:00,
2013-06-26 13:52:00,76.0,67.0,-100.00,SE,135,4.0,-999.0,74,-99.99,,,-99.99,612.479980,,2013-06-26 17:52:00,
2013-06-26 14:00:00,78.0,68.0,-100.00,ESE,112,5.0,-999.0,70,-99.99,,,-99.99,708.760010,,2013-06-26 18:00:00,
2013-06-26 14:43:00,78.0,68.0,-100.00,ESE,112,5.0,-999.0,70,-99.99,,,-99.99,708.760010,,2013-06-26 18:43:00,
2013-06-26 14:52:00,78.0,68.0,-100.00,ESE,112,5.0,-999.0,70,-99.99,,,-99.99,708.760010,,2013-06-26 18:52:00,
2013-06-26 15:00:00,80.0,68.0,-100.00,SSE,157,4.0,-999.0,67,-99.99,,,-99.99,651.919983,,2013-06-26 19:00:00,
2013-06-26 15:43:00,80.0,68.0,-100.00,SSE,157,4.0,-999.0,67,-99.99,,,-99.99,651.919983,,2013-06-26 19:43:00,
2013-06-26 15:52:00,80.0,68.0,-100.00,SSE,157,4.0,-999.0,67,-99.99,,,-99.99,651.919983,,2013-06-26 19:52:00,
2013-06-26 16:00:00,82.0,68.0,-100.00,SSE,157,3.0,-999.0,62,-99.99,,,-99.99,511.559998,,2013-06-26 20:00:00,
2013-06-26 16:43:00,82.0,68.0,-100.00,SSE,157,3.0,-999.0,62,-99.99,,,-99.99,511.559998,,2013-06-26 20:43:00,
2013-06-26 16:52:00,82.0,68.0,-100.00,SSE,157,3.0,-999.0,62,-99.99,,,-99.99,511.559998,,2013-06-26 20:52:00,
2013-06-26 17:00:00,81.0,68.0,-100.00,SSW,202,4.0,-999.0,63,-99.99,,,-99.99,307.399994,,2013-06-26 21:00:00,
2013-06-26 17:43:00,81.0,68.0,-100.00,SSW,202,4.0,-999.0,63,-99.99,,,-99.99,307.399994,,2013-06-26 21:43:00,
2013-06-26 17:52:00,81.0,68.0,-100.00,SSW,202,4.0,-999.0,63,-99.99,,,-99.99,307.399994,,2013-06-26 21:52:00,
2013-06-26 18:00:00,81.0,69.0,-100.00,West,270,4.0,-999.0,65,-99.99,,,-99.99,393.239990,,2013-06-26 22:00:00,
2013-06-26 18:43:00,81.0,69.0,-100.00,West,270,4.0,-999.0,65,-99.99,,,-99.99,393.239990,,2013-06-26 22:43:00,
2013-06-26 18:52:00,81.0,69.0,-100.00,West,270,4.0,-999.0,65,-99.99,,,-99.99,393.239990,,2013-06-26 22:52:00,
2013-06-26 19:00:00,80.0,68.0,-100.00,WNW,292,4.0,-999.0,68,-99.99,,,-99.99,209.960007,,2013-06-26 23:00:00,
2013-06-26 19:43:00,80.0,68.0,-100.00,WNW,292,4.0,-999.0,68,-99.99,,,-99.99,209.960007,,2013-06-26 23:43:00,
2013-06-26 19:53:00,80.0,68.0,-100.00,WNW,292,4.0,-999.0,68,-99.99,,,-99.99,209.960007,,2013-06-26 23:53:00,
2013-06-26 20:00:00,78.0,68.0,-100.00,NW,315,4.0,-999.0,70,-99.99,,,-99.99,136.880005,,2013-06-27 00:00:00,
2013-06-26 20:43:00,78.0,68.0,-100.00,NW,315,4.0,-999.0,70,-99.99,,,-99.99,136.880005,,2013-06-27 00:43:00,
2013-06-26 20:53:00,78.0,68.0,-100.00,NW,315,4.0,-999.0,70,-99.99,,,-99.99,136.880005,,2013-06-27 00:53:00,
2013-06-26 21:00:00,75.0,67.0,-100.00,SE,135,3.0,-999.0,74,-99.99,,,-99.99,20.879999,,2013-06-27 01:00:00,
2013-06-26 21:43:00,75.0,67.0,-100.00,SE,135,3.0,-999.0,74,-99.99,,,-99.99,20.879999,,2013-06-27 01:43:00,
2013-06-26 21:53:00,75.0,67.0,-100.00,SE,135,3.0,-999.0,74,-99.99,,,-99.99,20.879999,,2013-06-27 01:53:00,
2013-06-26 22:00:00,72.0,66.0,-100.00,East,90,3.0,-999.0,80,-99.99,,,-99.99,3.480000,,2013-06-27 02:00:00,
2013-06-26 22:42:00,72.0,66.0,-100.00,East,90,3.0,-999.0,80,-99.99,,,-99.99,3.480000,,2013-06-27 02:42:00,
2013-06-26 22:52:00,72.0,66.0,-100.00,East,90,3.0,-999.0,80,-99.99,,,-99.99,3.480000,,2013-06-27 02:52:00,
2013-06-26 23:00:00,71.0,67.0,-100.00,ESE,112,2.0,-999.0,85,-99.99,,,-99.99,0.000000,,2013-06-27 03:00:00,
2013-06-26 23:42:00,71.0,67.0,-100.00,ESE,112,2.0,-999.0,85,-99.99,,,-99.99,0.000000,,2013-06-27 03:42:00,
2013-06-26 23:52:00,71.0,67.0,-100.00,ESE,112,2.0,-999.0,85,-99.99,,,-99.99,0.000000,,2013-06-27 03:52:00,